createdAt,value
2023-03-05T00:00:13.014Z,6.70
2023-03-05T00:02:40.019Z,5.60
2023-03-05T00:05:07.261Z,6.70
2023-03-05T00:07:35.692Z,5.73
2023-03-05T00:10:04.744Z,5.30
2023-03-05T00:12:31.590Z,5.17
2023-03-05T00:14:58.489Z,4.87
2023-03-05T00:17:25.322Z,5.13
2023-03-05T00:19:52.248Z,4.83
2023-03-05T00:22:19.032Z,4.57
2023-03-05T00:24:49.922Z,4.50
2023-03-05T00:27:16.747Z,6.10
2023-03-05T00:29:43.584Z,6.17
2023-03-05T00:32:10.505Z,6.10
2023-03-05T00:34:37.447Z,6.70
2023-03-05T00:37:04.676Z,6.37
2023-03-05T00:39:31.491Z,5.70
2023-03-05T00:41:59.811Z,5.33
2023-03-05T00:44:26.699Z,5.17
2023-03-05T00:46:53.588Z,6.73
2023-03-05T00:49:20.703Z,5.40
2023-03-05T00:51:47.549Z,3.93
2023-03-05T00:54:14.512Z,3.40
2023-03-05T00:56:41.336Z,3.60
2023-03-05T00:59:09.864Z,3.50
2023-03-05T01:01:36.795Z,3.80
2023-03-05T01:04:03.918Z,2.97
2023-03-05T01:06:30.915Z,3.20
2023-03-05T01:08:59.083Z,3.23
2023-03-05T01:11:26.241Z,3.10
2023-03-05T01:13:53.090Z,3.33
2023-03-05T01:16:21.459Z,2.87
2023-03-05T01:18:48.316Z,3.17
2023-03-05T01:21:15.165Z,3.13
2023-03-05T01:23:42.039Z,2.73
2023-03-05T01:26:09.524Z,2.60
2023-03-05T01:28:38.128Z,2.83
2023-03-05T01:31:08.348Z,2.80
2023-03-05T01:33:36.540Z,2.63
2023-03-05T01:36:06.539Z,2.87
2023-03-05T01:38:33.376Z,2.83
2023-03-05T01:41:00.509Z,2.90
2023-03-05T01:43:29.617Z,3.03
2023-03-05T01:46:34.802Z,3.27
2023-03-05T01:49:15.726Z,3.30
2023-03-05T01:51:50.377Z,3.17
2023-03-05T01:54:20.670Z,3.30
2023-03-05T01:56:51.334Z,3.30
2023-03-05T01:59:19.126Z,2.87
2023-03-05T02:01:50.624Z,3.17
2023-03-05T02:04:20.051Z,3.03
2023-03-05T02:06:47.405Z,3.03
2023-03-05T02:09:14.776Z,3.20
2023-03-05T02:11:42.361Z,3.50
2023-03-05T02:14:10.418Z,3.33
2023-03-05T02:16:38.903Z,3.20
2023-03-05T02:19:08.112Z,4.23
2023-03-05T02:21:40.933Z,3.27
2023-03-05T02:24:11.730Z,3.30
2023-03-05T02:26:38.681Z,3.40
2023-03-05T02:29:09.311Z,3.70
2023-03-05T02:31:38.942Z,3.80
2023-03-05T02:34:06.460Z,3.83
2023-03-05T02:36:33.488Z,3.60
2023-03-05T02:39:01.644Z,2.93
2023-03-05T02:41:28.766Z,4.23
2023-03-05T02:43:55.637Z,3.60
2023-03-05T02:46:22.697Z,3.70
2023-03-05T02:48:49.999Z,4.43
2023-03-05T02:51:16.992Z,4.57
2023-03-05T02:53:43.964Z,4.30
2023-03-05T02:56:12.864Z,3.77
2023-03-05T02:58:39.877Z,4.03
2023-03-05T03:01:07.960Z,4.30
2023-03-05T03:03:34.979Z,4.20
2023-03-05T03:06:02.048Z,4.33
2023-03-05T03:08:28.854Z,3.43
2023-03-05T03:10:56.472Z,4.00
2023-03-05T03:13:25.360Z,3.77
2023-03-05T03:16:02.022Z,4.53
2023-03-05T03:18:28.895Z,4.00
2023-03-05T03:20:55.757Z,4.20
2023-03-05T03:23:22.679Z,4.20
2023-03-05T03:25:49.464Z,3.93
2023-03-05T03:28:16.410Z,4.67
2023-03-05T03:30:44.728Z,5.50
2023-03-05T03:33:11.659Z,4.53
2023-03-05T03:35:38.698Z,5.00
2023-03-05T03:38:05.562Z,5.00
2023-03-05T03:40:32.782Z,4.90
2023-03-05T03:42:59.611Z,4.80
2023-03-05T03:45:26.980Z,4.50
2023-03-05T03:47:55.221Z,3.83
2023-03-05T03:50:24.901Z,3.83
2023-03-05T03:52:52.085Z,4.00
2023-03-05T03:55:19.057Z,3.80
2023-03-05T03:57:45.974Z,3.30
2023-03-05T04:00:13.936Z,3.20
2023-03-05T04:02:40.911Z,3.33
2023-03-05T04:05:09.996Z,3.00
2023-03-05T04:07:39.937Z,2.67
2023-03-05T04:10:07.651Z,2.93
2023-03-05T04:12:34.472Z,3.10
2023-03-05T04:15:01.365Z,3.03
2023-03-05T04:17:28.238Z,2.23
2023-03-05T04:19:55.144Z,2.50
2023-03-05T04:22:23.340Z,2.70
2023-03-05T04:24:50.287Z,2.40
2023-03-05T04:27:17.169Z,1.80
2023-03-05T04:29:44.207Z,2.37
2023-03-05T04:32:11.050Z,2.93
2023-03-05T04:34:38.427Z,2.10
2023-03-05T04:37:05.566Z,2.43
2023-03-05T04:39:33.838Z,2.33
2023-03-05T04:42:00.760Z,1.97
2023-03-05T04:44:27.514Z,1.50
2023-03-05T04:46:54.321Z,1.47
2023-03-05T04:49:21.158Z,1.83
2023-03-05T04:51:48.129Z,2.10
2023-03-05T04:54:14.998Z,1.60
2023-03-05T04:56:43.147Z,1.33
2023-03-05T04:59:10.044Z,1.10
2023-03-05T05:01:37.518Z,1.03
2023-03-05T05:04:04.366Z,1.27
2023-03-05T05:06:31.252Z,1.10
2023-03-05T05:08:58.148Z,0.87
2023-03-05T05:11:24.974Z,0.90
2023-03-05T05:13:53.207Z,1.27
2023-03-05T05:16:20.298Z,1.10
2023-03-05T05:18:47.251Z,1.10
2023-03-05T05:21:15.214Z,1.17
2023-03-05T05:23:42.160Z,1.40
2023-03-05T05:26:14.175Z,1.33
2023-03-05T05:28:43.442Z,1.33
2023-03-05T05:31:13.609Z,1.40
2023-03-05T05:33:40.952Z,1.53
2023-03-05T05:36:10.832Z,1.40
2023-03-05T05:38:37.639Z,1.70
2023-03-05T05:41:05.330Z,1.30
2023-03-05T05:43:32.276Z,1.57
2023-03-05T05:46:00.816Z,1.57
2023-03-05T05:48:29.904Z,1.87
2023-03-05T05:50:57.252Z,1.20
2023-03-05T05:53:25.392Z,1.30
2023-03-05T05:55:52.608Z,1.47
2023-03-05T05:58:19.520Z,1.70
2023-03-05T06:00:46.375Z,1.40
2023-03-05T06:03:13.559Z,1.60
2023-03-05T06:05:43.293Z,1.60
2023-03-05T06:08:10.670Z,1.33
2023-03-05T06:10:37.524Z,1.50
2023-03-05T06:13:04.670Z,1.57
2023-03-05T06:15:31.863Z,1.23
2023-03-05T06:17:59.567Z,1.40
2023-03-05T06:20:28.391Z,1.40
2023-03-05T06:22:56.648Z,1.40
2023-03-05T06:25:23.619Z,1.27
2023-03-05T06:27:50.548Z,1.63
2023-03-05T06:30:17.724Z,1.37
2023-03-05T06:32:44.690Z,1.37
2023-03-05T06:35:11.884Z,1.60
2023-03-05T06:37:38.786Z,1.50
2023-03-05T06:40:08.700Z,1.60
2023-03-05T06:42:36.308Z,1.80
2023-03-05T06:45:03.619Z,2.73
2023-03-05T06:47:31.321Z,2.07
2023-03-05T06:49:58.328Z,1.70
2023-03-05T06:52:25.211Z,1.50
2023-03-05T06:54:55.618Z,1.93
2023-03-05T06:57:24.100Z,1.80
2023-03-05T06:59:50.983Z,2.57
2023-03-05T07:02:19.209Z,2.10
2023-03-05T07:04:46.468Z,2.33
2023-03-05T07:07:13.317Z,2.00
2023-03-05T07:09:42.912Z,2.03
2023-03-05T07:12:10.530Z,2.10
2023-03-05T07:14:39.277Z,2.30
2023-03-05T07:17:06.351Z,2.70
2023-03-05T07:19:33.652Z,3.40
2023-03-05T07:22:00.524Z,11.20
2023-03-05T07:24:29.923Z,9.70
2023-03-05T07:26:57.490Z,3.50
2023-03-05T07:29:24.602Z,3.40
2023-03-05T07:31:53.696Z,3.07
2023-03-05T07:34:21.382Z,2.90
2023-03-05T07:36:50.402Z,3.13
2023-03-05T07:39:19.584Z,3.07
2023-03-05T07:41:46.528Z,2.63
2023-03-05T07:44:13.530Z,3.60
2023-03-05T07:46:40.469Z,3.87
2023-03-05T07:49:08.672Z,3.43
2023-03-05T07:51:35.690Z,3.80
2023-03-05T07:54:02.851Z,3.60
2023-03-05T07:56:32.075Z,3.90
2023-03-05T07:58:59.906Z,4.10
2023-03-05T08:01:26.852Z,4.60
2023-03-05T08:03:53.734Z,4.20
2023-03-05T08:06:22.077Z,4.30
2023-03-05T08:08:49.138Z,4.20
2023-03-05T08:11:16.916Z,4.60
2023-03-05T08:13:44.978Z,4.43
2023-03-05T08:16:14.225Z,4.73
2023-03-05T08:18:41.382Z,4.17
2023-03-05T08:21:16.362Z,4.40
2023-03-05T08:23:44.680Z,5.17
2023-03-05T08:26:13.396Z,4.80
2023-03-05T08:28:40.218Z,4.63
2023-03-05T08:31:09.452Z,5.17
2023-03-05T08:33:36.521Z,4.57
2023-03-05T08:36:03.744Z,4.97
2023-03-05T08:38:30.783Z,5.07
2023-03-05T08:40:59.220Z,4.97
2023-03-05T08:43:26.040Z,4.73
2023-03-05T08:45:53.597Z,5.33
2023-03-05T08:48:20.861Z,4.70
2023-03-05T08:50:47.733Z,5.47
2023-03-05T08:53:14.735Z,4.73
2023-03-05T08:55:44.119Z,5.30
2023-03-05T08:58:14.792Z,5.10
2023-03-05T09:00:41.738Z,5.07
2023-03-05T09:03:09.839Z,4.30
2023-03-05T09:05:38.982Z,4.63
2023-03-05T09:08:05.967Z,4.37
2023-03-05T09:10:32.762Z,4.37
2023-03-05T09:12:59.682Z,4.27
2023-03-05T09:15:27.911Z,4.83
2023-03-05T09:17:54.852Z,4.97
2023-03-05T09:20:21.914Z,5.10
2023-03-05T09:22:48.778Z,5.00
2023-03-05T09:25:15.599Z,5.40
2023-03-05T09:27:43.834Z,5.30
2023-03-05T09:30:13.004Z,5.33
2023-03-05T09:32:41.387Z,5.63
2023-03-05T09:35:09.567Z,5.20
2023-03-05T09:37:36.642Z,4.87
2023-03-05T09:40:04.554Z,5.37
2023-03-05T09:42:45.663Z,5.03
2023-03-05T09:45:20.668Z,5.20
2023-03-05T09:47:57.107Z,5.20
2023-03-05T09:50:34.710Z,6.00
2023-03-05T09:53:06.193Z,5.77
2023-03-05T09:55:40.424Z,5.30
2023-03-05T09:58:12.807Z,4.47
2023-03-05T10:00:43.965Z,4.83
2023-03-05T10:03:17.645Z,4.87
2023-03-05T10:06:07.308Z,6.20
2023-03-05T10:08:46.410Z,5.27
2023-03-05T10:11:39.632Z,4.17
2023-03-05T10:14:13.778Z,5.10
2023-03-05T10:17:02.266Z,5.07
2023-03-05T10:19:47.441Z,4.47
2023-03-05T10:22:19.842Z,5.37
2023-03-05T10:24:59.887Z,5.90
2023-03-05T10:27:40.063Z,5.80
2023-03-05T10:30:20.771Z,5.83
2023-03-05T10:32:54.130Z,5.43
2023-03-05T10:36:11.176Z,5.07
2023-03-05T10:38:53.328Z,5.03
2023-03-05T10:41:29.235Z,4.90
2023-03-05T10:44:00.984Z,5.80
2023-03-05T10:46:34.588Z,5.43
2023-03-05T10:49:06.377Z,6.03
2023-03-05T10:51:36.362Z,6.60
2023-03-05T10:54:13.300Z,6.40
2023-03-05T10:56:40.282Z,6.20
2023-03-05T10:59:07.109Z,6.37
2023-03-05T11:01:34.314Z,6.63
2023-03-05T11:04:03.725Z,7.13
2023-03-05T11:06:36.639Z,6.27
2023-03-05T11:09:29.347Z,6.93
2023-03-05T11:12:12.060Z,6.37
2023-03-05T11:14:41.759Z,5.87
2023-03-05T11:17:30.636Z,6.97
2023-03-05T11:19:58.807Z,6.33
2023-03-05T11:22:26.043Z,5.63
2023-03-05T11:25:16.265Z,5.03
2023-03-05T11:27:51.567Z,5.00
2023-03-05T11:30:22.256Z,5.23
2023-03-05T11:32:49.223Z,5.47
2023-03-05T11:35:31.022Z,5.37
2023-03-05T11:38:01.414Z,4.70
2023-03-05T11:40:31.095Z,4.97
2023-03-05T11:43:00.587Z,4.90
2023-03-05T11:45:30.361Z,4.60
2023-03-05T11:48:01.706Z,5.07
2023-03-05T11:50:30.350Z,3.93
2023-03-05T11:53:00.127Z,4.33
2023-03-05T11:55:31.313Z,4.53
2023-03-05T11:58:12.761Z,4.57
2023-03-05T12:00:43.829Z,4.40
2023-03-05T12:03:15.122Z,3.80
2023-03-05T12:05:45.743Z,4.37
2023-03-05T12:08:15.694Z,4.27
2023-03-05T12:10:44.356Z,3.60
2023-03-05T12:13:19.803Z,4.70
2023-03-05T12:15:59.886Z,4.17
2023-03-05T12:18:38.692Z,3.60
2023-03-05T12:21:08.415Z,4.00
2023-03-05T12:23:47.197Z,3.83
2023-03-05T12:26:15.701Z,3.93
2023-03-05T12:28:55.855Z,3.90
2023-03-05T12:31:37.955Z,3.37
2023-03-05T12:34:56.224Z,3.70
2023-03-05T12:37:58.273Z,2.97
2023-03-05T12:40:26.352Z,3.75
2023-03-05T12:42:57.339Z,3.40
2023-03-05T12:45:40.212Z,3.00
2023-03-05T12:48:42.589Z,3.30
2023-03-05T12:51:36.091Z,3.07
2023-03-05T12:54:27.594Z,2.30
2023-03-05T12:56:56.412Z,1.93
2023-03-05T12:59:29.730Z,2.10
2023-03-05T13:01:59.345Z,2.20
2023-03-05T13:04:30.362Z,2.30
2023-03-05T13:07:02.067Z,2.10
2023-03-05T13:09:33.585Z,2.03
2023-03-05T13:12:02.696Z,1.60
2023-03-05T13:14:39.397Z,1.80
2023-03-05T13:17:25.821Z,1.60
2023-03-05T13:19:52.988Z,1.83
2023-03-05T13:22:19.861Z,1.67
2023-03-05T13:24:47.188Z,1.30
2023-03-05T13:27:21.192Z,1.30
2023-03-05T13:29:53.405Z,1.23
2023-03-05T13:32:25.883Z,3.00
2023-03-05T13:34:55.810Z,4.53
2023-03-05T13:37:25.834Z,2.10
2023-03-05T13:39:55.983Z,11.20
2023-03-05T13:42:25.750Z,5.30
2023-03-05T13:44:59.186Z,3.53
2023-03-05T13:47:28.682Z,1.90
2023-03-05T13:49:57.407Z,1.83
2023-03-05T13:52:25.201Z,2.37
2023-03-05T13:54:52.175Z,1.83
2023-03-05T13:57:34.921Z,1.50
2023-03-05T14:00:04.283Z,1.43
2023-03-05T14:02:33.336Z,1.20
2023-03-05T14:05:00.609Z,1.13
2023-03-05T14:07:33.628Z,5.00
2023-03-05T14:10:00.783Z,2.07
2023-03-05T14:12:33.487Z,2.03
2023-03-05T14:15:02.436Z,1.67
2023-03-05T14:17:37.326Z,1.83
2023-03-05T14:20:19.680Z,2.20
2023-03-05T14:22:50.804Z,2.00
2023-03-05T14:25:30.065Z,1.33
2023-03-05T14:27:57.557Z,1.70
2023-03-05T14:30:26.026Z,1.77
2023-03-05T14:32:55.792Z,2.00
2023-03-05T14:35:25.413Z,1.90
2023-03-05T14:37:54.661Z,1.50
2023-03-05T14:40:26.991Z,1.47
2023-03-05T14:42:55.937Z,1.73
2023-03-05T14:45:25.532Z,1.80
2023-03-05T14:47:56.081Z,2.07
2023-03-05T14:50:24.649Z,2.00
2023-03-05T14:52:54.453Z,1.80
2023-03-05T14:55:24.497Z,1.90
2023-03-05T14:57:54.069Z,1.90
2023-03-05T15:00:23.010Z,1.70
2023-03-05T15:02:50.440Z,1.63
2023-03-05T15:05:19.745Z,1.90
2023-03-05T15:07:47.580Z,2.17
2023-03-05T15:10:15.744Z,2.00
2023-03-05T15:12:44.143Z,2.03
2023-03-05T15:15:13.704Z,1.97
2023-03-05T15:17:43.078Z,2.10
2023-03-05T15:20:15.995Z,2.33
2023-03-05T15:22:44.267Z,2.20
2023-03-05T15:25:11.891Z,2.27
2023-03-05T15:27:41.034Z,2.30
2023-03-05T15:30:21.490Z,2.23
2023-03-05T15:32:48.863Z,2.03
2023-03-05T15:35:15.833Z,2.30
2023-03-05T15:37:44.202Z,2.90
2023-03-05T15:40:12.408Z,2.30
2023-03-05T15:42:39.661Z,1.90
2023-03-05T15:45:07.574Z,1.90
2023-03-05T15:47:34.682Z,2.17
2023-03-05T15:50:01.816Z,1.90
2023-03-05T15:52:28.720Z,2.03
2023-03-05T15:54:56.970Z,2.13
2023-03-05T15:57:23.988Z,2.00
2023-03-05T15:59:50.909Z,2.40
2023-03-05T16:02:18.790Z,2.07
2023-03-05T16:04:45.732Z,2.77
2023-03-05T16:07:14.341Z,2.77
2023-03-05T16:09:45.779Z,2.77
2023-03-05T16:12:18.098Z,2.37
2023-03-05T16:14:45.922Z,2.57
2023-03-05T16:17:14.350Z,2.67
2023-03-05T16:19:44.332Z,3.00
2023-03-05T16:22:11.177Z,2.57
2023-03-05T16:24:38.220Z,3.13
2023-03-05T16:27:05.355Z,3.10
2023-03-05T16:29:33.835Z,3.70
2023-03-05T16:32:02.506Z,3.33
2023-03-05T16:34:29.469Z,3.33
2023-03-05T16:36:56.408Z,3.57
2023-03-05T16:39:23.464Z,3.57
2023-03-05T16:41:50.924Z,3.60
2023-03-05T16:44:17.773Z,2.87
2023-03-05T16:46:49.159Z,3.63
2023-03-05T16:49:16.070Z,3.17
2023-03-05T16:51:42.865Z,3.40
2023-03-05T16:54:10.207Z,3.20
2023-03-05T16:56:37.273Z,3.50
2023-03-05T16:59:04.406Z,3.43
2023-03-05T17:01:31.736Z,3.10
2023-03-05T17:04:00.599Z,3.90
2023-03-05T17:06:29.627Z,3.17
2023-03-05T17:08:56.852Z,3.73
2023-03-05T17:11:25.715Z,3.03
2023-03-05T17:13:52.986Z,2.87
2023-03-05T17:16:20.624Z,3.63
2023-03-05T17:18:47.930Z,3.77
2023-03-05T17:21:16.637Z,3.77
2023-03-05T17:23:43.962Z,3.23
2023-03-05T17:26:13.460Z,3.40
2023-03-05T17:28:40.394Z,3.90
2023-03-05T17:31:07.731Z,3.70
2023-03-05T17:33:35.443Z,3.53
2023-03-05T17:36:03.587Z,3.97
2023-03-05T17:38:32.252Z,3.77
2023-03-05T17:40:59.220Z,3.67
2023-03-05T17:43:26.195Z,3.33
2023-03-05T17:45:53.126Z,3.53
2023-03-05T17:48:20.035Z,3.70
2023-03-05T17:50:46.913Z,4.43
2023-03-05T17:53:14.045Z,4.73
2023-03-05T17:55:42.422Z,7.43
2023-03-05T17:58:09.474Z,3.80
2023-03-05T18:00:36.899Z,3.60
2023-03-05T18:03:04.872Z,4.47
2023-03-05T18:05:32.462Z,3.30
2023-03-05T18:08:00.677Z,4.13
2023-03-05T18:10:28.164Z,3.80
2023-03-05T18:12:56.906Z,3.43
2023-03-05T18:15:28.915Z,4.00
2023-03-05T18:17:56.385Z,3.90
2023-03-05T18:20:26.599Z,4.20
2023-03-05T18:22:53.568Z,4.33
2023-03-05T18:25:20.577Z,3.67
2023-03-05T18:27:47.619Z,3.63
2023-03-05T18:30:17.391Z,3.70
2023-03-05T18:32:45.485Z,3.70
2023-03-05T18:35:13.993Z,3.90
2023-03-05T18:37:40.890Z,4.13
2023-03-05T18:40:09.716Z,3.37
2023-03-05T18:42:37.070Z,4.40
2023-03-05T18:45:04.812Z,3.63
2023-03-05T18:47:33.417Z,3.87
2023-03-05T18:50:00.346Z,4.30
2023-03-05T18:52:27.200Z,4.53
2023-03-05T18:54:55.172Z,4.33
2023-03-05T18:57:21.958Z,5.13
2023-03-05T18:59:48.812Z,4.23
2023-03-05T19:02:16.390Z,4.33
2023-03-05T19:04:44.713Z,5.03
2023-03-05T19:07:11.681Z,4.77
2023-03-05T19:09:52.057Z,5.90
2023-03-05T19:12:19.797Z,5.43
2023-03-05T19:14:46.929Z,4.67
2023-03-05T19:17:13.831Z,5.00
2023-03-05T19:19:42.804Z,4.63
2023-03-05T19:22:11.654Z,4.40
2023-03-05T19:24:39.099Z,4.53
2023-03-05T19:27:13.470Z,4.20
2023-03-05T19:29:41.672Z,4.20
2023-03-05T19:32:10.865Z,3.83
2023-03-05T19:34:37.978Z,4.17
2023-03-05T19:37:05.809Z,5.93
2023-03-05T19:39:34.441Z,5.10
2023-03-05T19:42:01.576Z,5.00
2023-03-05T19:44:28.537Z,6.13
2023-03-05T19:46:55.520Z,5.93
2023-03-05T19:49:23.039Z,5.20
2023-03-05T19:51:50.181Z,5.57
2023-03-05T19:54:20.537Z,5.27
2023-03-05T19:56:49.189Z,4.87
2023-03-05T19:59:20.999Z,4.63
2023-03-05T20:01:48.750Z,5.00
2023-03-05T20:04:18.057Z,4.77
2023-03-05T20:06:45.158Z,4.70
2023-03-05T20:09:12.009Z,4.33
2023-03-05T20:11:38.894Z,4.57
2023-03-05T20:14:08.068Z,6.07
2023-03-05T20:16:37.523Z,5.30
2023-03-05T20:19:05.904Z,5.50
2023-03-05T20:21:34.473Z,5.23
2023-03-05T20:24:03.853Z,4.30
2023-03-05T20:26:31.051Z,4.23
2023-03-05T20:28:58.227Z,4.73
2023-03-05T20:31:28.139Z,4.27
2023-03-05T20:33:56.252Z,4.83
2023-03-05T20:36:23.403Z,4.73
2023-03-05T20:38:50.388Z,4.70
2023-03-05T20:41:20.599Z,10.67
2023-03-05T20:43:49.516Z,5.27
2023-03-05T20:46:18.468Z,4.83
2023-03-05T20:48:50.407Z,5.63
2023-03-05T20:51:19.092Z,4.37
2023-03-05T20:53:46.202Z,5.20
2023-03-05T20:56:13.112Z,4.13
2023-03-05T20:58:40.033Z,4.47
2023-03-05T21:01:07.066Z,4.10
2023-03-05T21:03:34.089Z,4.67
2023-03-05T21:06:04.511Z,4.50
2023-03-05T21:08:31.558Z,4.70
2023-03-05T21:10:59.068Z,5.03
2023-03-05T21:13:26.315Z,5.23
2023-03-05T21:15:53.280Z,5.77
2023-03-05T21:18:20.235Z,5.30
2023-03-05T21:20:47.086Z,5.83
2023-03-05T21:23:15.761Z,5.07
2023-03-05T21:25:42.886Z,6.67
2023-03-05T21:28:12.468Z,6.53
2023-03-05T21:30:43.562Z,6.80
2023-03-05T21:33:12.717Z,7.03
2023-03-05T21:35:40.664Z,7.07
2023-03-05T21:38:08.516Z,7.17
2023-03-05T21:40:43.447Z,6.07
2023-03-05T21:43:10.885Z,6.83
2023-03-05T21:45:37.910Z,5.73
2023-03-05T21:48:05.775Z,7.23
2023-03-05T21:50:35.609Z,6.60
2023-03-05T21:53:03.164Z,6.53
2023-03-05T21:55:42.988Z,7.40
2023-03-05T21:58:11.187Z,7.17
2023-03-05T22:00:38.173Z,8.45
2023-03-05T22:03:05.093Z,7.77
2023-03-05T22:05:31.899Z,7.57
2023-03-05T22:07:58.789Z,7.30
2023-03-05T22:10:25.874Z,7.37
2023-03-05T22:13:03.045Z,7.53
2023-03-05T22:15:31.437Z,7.53
2023-03-05T22:17:58.291Z,8.47
2023-03-05T22:20:25.311Z,7.53
2023-03-05T22:22:52.389Z,7.40
2023-03-05T22:25:19.253Z,6.97
2023-03-05T22:27:46.132Z,7.53
2023-03-05T22:30:13.916Z,7.50
2023-03-05T22:32:42.093Z,7.60
2023-03-05T22:35:12.788Z,8.23
2023-03-05T22:37:41.432Z,7.57
2023-03-05T22:40:09.985Z,7.10
2023-03-05T22:42:36.846Z,7.17
2023-03-05T22:45:04.241Z,7.20
2023-03-05T22:47:31.377Z,7.27
2023-03-05T22:49:59.882Z,6.10
2023-03-05T22:52:26.922Z,7.13
2023-03-05T22:54:55.991Z,6.27
2023-03-05T22:57:22.974Z,7.53
2023-03-05T22:59:49.980Z,7.03
2023-03-05T23:02:17.171Z,6.87
2023-03-05T23:04:50.346Z,6.80
2023-03-05T23:07:20.598Z,6.00
2023-03-05T23:09:51.850Z,6.93
2023-03-05T23:12:18.829Z,5.93
2023-03-05T23:14:45.625Z,6.07
2023-03-05T23:17:12.491Z,6.93
2023-03-05T23:19:39.947Z,6.07
2023-03-05T23:22:08.667Z,5.90
2023-03-05T23:24:37.218Z,5.73
2023-03-05T23:27:07.544Z,5.20
2023-03-05T23:29:47.228Z,5.97
2023-03-05T23:32:14.152Z,6.00
2023-03-05T23:34:40.962Z,5.80
2023-03-05T23:37:07.849Z,5.63
2023-03-05T23:39:36.107Z,5.43
2023-03-05T23:42:03.019Z,5.77
2023-03-05T23:44:29.847Z,6.33
2023-03-05T23:46:56.728Z,5.90
2023-03-05T23:49:23.549Z,6.20
2023-03-05T23:51:50.418Z,5.53
2023-03-05T23:54:17.193Z,5.27
2023-03-05T23:56:45.397Z,5.53
2023-03-05T23:59:12.242Z,5.27
